sensor_id;sensor_type;location;lat;lon;timestamp;P1;durP1;ratioP1;P2;durP2;ratioP2
73428;SDS011;61643;49.564;17.412;2023-05-10T00:00:59;2.13;;;1.30;;
73428;SDS011;61643;49.564;17.412;2023-05-10T00:03:25;2.92;;;1.67;;
73428;SDS011;61643;49.564;17.412;2023-05-10T00:05:51;2.45;;;1.50;;
73428;SDS011;61643;49.564;17.412;2023-05-10T00:08:17;1.60;;;1.30;;
73428;SDS011;61643;49.564;17.412;2023-05-10T00:10:43;1.45;;;1.25;;
73428;SDS011;61643;49.564;17.412;2023-05-10T00:13:09;7.80;;;1.60;;
73428;SDS011;61643;49.564;17.412;2023-05-10T00:15:35;3.53;;;1.10;;
73428;SDS011;61643;49.564;17.412;2023-05-10T00:18:01;3.08;;;1.30;;
73428;SDS011;61643;49.564;17.412;2023-05-10T00:20:27;1.90;;;1.27;;
73428;SDS011;61643;49.564;17.412;2023-05-10T00:22:53;4.57;;;1.60;;
73428;SDS011;61643;49.564;17.412;2023-05-10T00:25:19;3.70;;;1.38;;
73428;SDS011;61643;49.564;17.412;2023-05-10T00:27:47;2.35;;;1.30;;
73428;SDS011;61643;49.564;17.412;2023-05-10T00:30:13;2.25;;;1.40;;
73428;SDS011;61643;49.564;17.412;2023-05-10T00:32:39;3.53;;;1.25;;
73428;SDS011;61643;49.564;17.412;2023-05-10T00:35:05;1.92;;;1.20;;
73428;SDS011;61643;49.564;17.412;2023-05-10T00:37:31;1.67;;;1.15;;
73428;SDS011;61643;49.564;17.412;2023-05-10T00:39:57;2.38;;;1.40;;
73428;SDS011;61643;49.564;17.412;2023-05-10T00:42:23;4.05;;;1.70;;
73428;SDS011;61643;49.564;17.412;2023-05-10T00:44:49;1.67;;;1.42;;
73428;SDS011;61643;49.564;17.412;2023-05-10T00:47:15;1.50;;;1.30;;
73428;SDS011;61643;49.564;17.412;2023-05-10T00:49:42;1.50;;;1.20;;
73428;SDS011;61643;49.564;17.412;2023-05-10T00:52:09;1.73;;;1.33;;
73428;SDS011;61643;49.564;17.412;2023-05-10T00:54:35;1.80;;;1.42;;
73428;SDS011;61643;49.564;17.412;2023-05-10T00:57:02;1.50;;;1.20;;
73428;SDS011;61643;49.564;17.412;2023-05-10T00:59:28;2.13;;;1.45;;
73428;SDS011;61643;49.564;17.412;2023-05-10T01:01:55;1.55;;;1.20;;
73428;SDS011;61643;49.564;17.412;2023-05-10T01:04:21;1.50;;;1.20;;
73428;SDS011;61643;49.564;17.412;2023-05-10T01:06:51;2.40;;;1.33;;
73428;SDS011;61643;49.564;17.412;2023-05-10T01:09:18;3.58;;;1.38;;
73428;SDS011;61643;49.564;17.412;2023-05-10T01:11:45;3.65;;;1.30;;
73428;SDS011;61643;49.564;17.412;2023-05-10T01:14:11;2.30;;;1.45;;
73428;SDS011;61643;49.564;17.412;2023-05-10T01:16:38;3.67;;;1.65;;
73428;SDS011;61643;49.564;17.412;2023-05-10T01:19:06;2.53;;;1.50;;
73428;SDS011;61643;49.564;17.412;2023-05-10T01:22:00;1.92;;;1.38;;
73428;SDS011;61643;49.564;17.412;2023-05-10T01:30:05;2.13;;;1.58;;
73428;SDS011;61643;49.564;17.412;2023-05-10T01:36:01;2.35;;;1.30;;
73428;SDS011;61643;49.564;17.412;2023-05-10T01:38:42;2.15;;;1.30;;
73428;SDS011;61643;49.564;17.412;2023-05-10T01:46:38;1.42;;;1.17;;
73428;SDS011;61643;49.564;17.412;2023-05-10T01:49:07;1.85;;;1.48;;
73428;SDS011;61643;49.564;17.412;2023-05-10T01:51:38;1.65;;;1.25;;
73428;SDS011;61643;49.564;17.412;2023-05-10T01:54:11;2.55;;;1.50;;
73428;SDS011;61643;49.564;17.412;2023-05-10T01:56:39;2.65;;;1.45;;
73428;SDS011;61643;49.564;17.412;2023-05-10T01:59:08;2.03;;;1.20;;
73428;SDS011;61643;49.564;17.412;2023-05-10T02:01:40;5.45;;;1.70;;
73428;SDS011;61643;49.564;17.412;2023-05-10T02:04:07;2.95;;;1.52;;
73428;SDS011;61643;49.564;17.412;2023-05-10T02:06:35;2.17;;;1.50;;
73428;SDS011;61643;49.564;17.412;2023-05-10T02:09:03;2.95;;;1.45;;
73428;SDS011;61643;49.564;17.412;2023-05-10T02:13:58;2.63;;;1.48;;
73428;SDS011;61643;49.564;17.412;2023-05-10T02:16:26;2.17;;;1.42;;
73428;SDS011;61643;49.564;17.412;2023-05-10T02:21:20;2.33;;;1.38;;
73428;SDS011;61643;49.564;17.412;2023-05-10T02:23:47;2.88;;;1.80;;
73428;SDS011;61643;49.564;17.412;2023-05-10T02:26:15;1.98;;;1.10;;
73428;SDS011;61643;49.564;17.412;2023-05-10T02:28:42;4.00;;;1.25;;
73428;SDS011;61643;49.564;17.412;2023-05-10T02:31:09;2.22;;;1.52;;
73428;SDS011;61643;49.564;17.412;2023-05-10T02:33:37;2.53;;;1.33;;
73428;SDS011;61643;49.564;17.412;2023-05-10T02:36:06;3.08;;;1.30;;
73428;SDS011;61643;49.564;17.412;2023-05-10T02:38:33;2.42;;;1.55;;
73428;SDS011;61643;49.564;17.412;2023-05-10T02:41:01;1.80;;;1.38;;
73428;SDS011;61643;49.564;17.412;2023-05-10T02:43:29;2.75;;;1.27;;
73428;SDS011;61643;49.564;17.412;2023-05-10T02:45:56;2.85;;;1.30;;
73428;SDS011;61643;49.564;17.412;2023-05-10T02:48:22;1.88;;;1.30;;
73428;SDS011;61643;49.564;17.412;2023-05-10T02:50:48;2.75;;;1.42;;
73428;SDS011;61643;49.564;17.412;2023-05-10T02:53:18;3.22;;;1.65;;
73428;SDS011;61643;49.564;17.412;2023-05-10T02:55:50;3.85;;;1.80;;
73428;SDS011;61643;49.564;17.412;2023-05-10T02:58:18;1.67;;;1.27;;
73428;SDS011;61643;49.564;17.412;2023-05-10T03:00:46;6.22;;;1.45;;
73428;SDS011;61643;49.564;17.412;2023-05-10T03:03:12;2.55;;;1.52;;
73428;SDS011;61643;49.564;17.412;2023-05-10T03:05:38;1.80;;;1.50;;
73428;SDS011;61643;49.564;17.412;2023-05-10T03:08:04;2.00;;;1.40;;
73428;SDS011;61643;49.564;17.412;2023-05-10T03:10:32;2.35;;;1.80;;
73428;SDS011;61643;49.564;17.412;2023-05-10T03:15:59;3.60;;;1.52;;
73428;SDS011;61643;49.564;17.412;2023-05-10T03:21:28;1.67;;;1.35;;
73428;SDS011;61643;49.564;17.412;2023-05-10T03:23:59;5.00;;;1.70;;
73428;SDS011;61643;49.564;17.412;2023-05-10T03:26:31;3.38;;;1.50;;
73428;SDS011;61643;49.564;17.412;2023-05-10T03:28:58;1.65;;;1.35;;
73428;SDS011;61643;49.564;17.412;2023-05-10T03:31:25;1.83;;;1.35;;
73428;SDS011;61643;49.564;17.412;2023-05-10T03:33:51;1.55;;;1.27;;
73428;SDS011;61643;49.564;17.412;2023-05-10T03:36:18;1.70;;;1.38;;
73428;SDS011;61643;49.564;17.412;2023-05-10T03:38:45;2.58;;;1.52;;
73428;SDS011;61643;49.564;17.412;2023-05-10T03:41:11;4.13;;;1.70;;
73428;SDS011;61643;49.564;17.412;2023-05-10T03:43:37;3.55;;;1.73;;
73428;SDS011;61643;49.564;17.412;2023-05-10T03:46:03;3.03;;;1.77;;
73428;SDS011;61643;49.564;17.412;2023-05-10T03:48:30;2.90;;;1.88;;
73428;SDS011;61643;49.564;17.412;2023-05-10T03:50:57;3.28;;;1.70;;
73428;SDS011;61643;49.564;17.412;2023-05-10T03:53:24;2.75;;;1.65;;
73428;SDS011;61643;49.564;17.412;2023-05-10T03:55:50;2.88;;;1.58;;
73428;SDS011;61643;49.564;17.412;2023-05-10T03:58:16;3.15;;;1.58;;
73428;SDS011;61643;49.564;17.412;2023-05-10T04:00:42;3.22;;;1.65;;
73428;SDS011;61643;49.564;17.412;2023-05-10T04:03:11;2.58;;;1.88;;
73428;SDS011;61643;49.564;17.412;2023-05-10T04:05:38;3.65;;;1.90;;
73428;SDS011;61643;49.564;17.412;2023-05-10T04:08:04;2.25;;;1.60;;
73428;SDS011;61643;49.564;17.412;2023-05-10T04:10:30;2.55;;;1.73;;
73428;SDS011;61643;49.564;17.412;2023-05-10T04:12:57;3.55;;;1.73;;
73428;SDS011;61643;49.564;17.412;2023-05-10T04:15:23;2.00;;;1.60;;
73428;SDS011;61643;49.564;17.412;2023-05-10T04:17:49;2.53;;;1.70;;
73428;SDS011;61643;49.564;17.412;2023-05-10T04:20:15;1.88;;;1.42;;
73428;SDS011;61643;49.564;17.412;2023-05-10T04:22:42;2.25;;;1.80;;
73428;SDS011;61643;49.564;17.412;2023-05-10T04:25:08;4.90;;;1.30;;
73428;SDS011;61643;49.564;17.412;2023-05-10T04:27:34;1.80;;;1.40;;
73428;SDS011;61643;49.564;17.412;2023-05-10T04:30:00;3.17;;;1.80;;
73428;SDS011;61643;49.564;17.412;2023-05-10T04:32:26;1.45;;;1.35;;
73428;SDS011;61643;49.564;17.412;2023-05-10T04:34:53;1.73;;;1.50;;
73428;SDS011;61643;49.564;17.412;2023-05-10T04:37:19;2.00;;;1.38;;
73428;SDS011;61643;49.564;17.412;2023-05-10T04:39:46;5.80;;;1.70;;
73428;SDS011;61643;49.564;17.412;2023-05-10T04:42:12;2.35;;;1.60;;
73428;SDS011;61643;49.564;17.412;2023-05-10T04:44:40;3.70;;;1.65;;
73428;SDS011;61643;49.564;17.412;2023-05-10T04:47:06;3.67;;;1.83;;
73428;SDS011;61643;49.564;17.412;2023-05-10T04:49:32;3.35;;;1.65;;
73428;SDS011;61643;49.564;17.412;2023-05-10T04:51:58;2.45;;;1.50;;
73428;SDS011;61643;49.564;17.412;2023-05-10T04:54:24;2.83;;;1.60;;
73428;SDS011;61643;49.564;17.412;2023-05-10T04:56:50;2.17;;;1.45;;
73428;SDS011;61643;49.564;17.412;2023-05-10T04:59:16;4.65;;;1.70;;
73428;SDS011;61643;49.564;17.412;2023-05-10T05:01:42;2.65;;;1.45;;
73428;SDS011;61643;49.564;17.412;2023-05-10T05:04:08;2.25;;;1.65;;
73428;SDS011;61643;49.564;17.412;2023-05-10T05:06:34;4.43;;;2.03;;
73428;SDS011;61643;49.564;17.412;2023-05-10T05:09:00;3.75;;;1.98;;
73428;SDS011;61643;49.564;17.412;2023-05-10T05:11:26;4.70;;;1.90;;
73428;SDS011;61643;49.564;17.412;2023-05-10T05:13:52;2.47;;;1.48;;
73428;SDS011;61643;49.564;17.412;2023-05-10T05:16:18;2.25;;;1.88;;
73428;SDS011;61643;49.564;17.412;2023-05-10T05:18:44;3.63;;;1.30;;
73428;SDS011;61643;49.564;17.412;2023-05-10T05:21:13;3.70;;;1.77;;
73428;SDS011;61643;49.564;17.412;2023-05-10T05:23:43;3.65;;;1.80;;
73428;SDS011;61643;49.564;17.412;2023-05-10T05:26:09;2.88;;;1.42;;
73428;SDS011;61643;49.564;17.412;2023-05-10T05:28:36;2.58;;;1.75;;
73428;SDS011;61643;49.564;17.412;2023-05-10T05:31:03;2.22;;;1.40;;
73428;SDS011;61643;49.564;17.412;2023-05-10T05:33:29;3.17;;;1.75;;
73428;SDS011;61643;49.564;17.412;2023-05-10T05:35:55;3.75;;;2.20;;
73428;SDS011;61643;49.564;17.412;2023-05-10T05:38:22;4.88;;;2.10;;
73428;SDS011;61643;49.564;17.412;2023-05-10T05:40:48;4.43;;;1.88;;
73428;SDS011;61643;49.564;17.412;2023-05-10T05:43:14;3.60;;;2.30;;
73428;SDS011;61643;49.564;17.412;2023-05-10T05:45:40;3.00;;;1.60;;
73428;SDS011;61643;49.564;17.412;2023-05-10T05:48:06;2.80;;;1.90;;
73428;SDS011;61643;49.564;17.412;2023-05-10T05:50:32;4.60;;;2.15;;
73428;SDS011;61643;49.564;17.412;2023-05-10T05:52:58;3.35;;;1.80;;
73428;SDS011;61643;49.564;17.412;2023-05-10T05:55:23;4.53;;;1.75;;
73428;SDS011;61643;49.564;17.412;2023-05-10T05:57:51;2.50;;;1.70;;
73428;SDS011;61643;49.564;17.412;2023-05-10T06:00:17;3.78;;;1.85;;
73428;SDS011;61643;49.564;17.412;2023-05-10T06:02:43;3.05;;;1.92;;
73428;SDS011;61643;49.564;17.412;2023-05-10T06:05:09;3.15;;;1.85;;
73428;SDS011;61643;49.564;17.412;2023-05-10T06:07:35;3.45;;;1.90;;
73428;SDS011;61643;49.564;17.412;2023-05-10T06:10:01;2.72;;;1.75;;
73428;SDS011;61643;49.564;17.412;2023-05-10T06:12:28;3.90;;;1.70;;
73428;SDS011;61643;49.564;17.412;2023-05-10T06:14:54;3.65;;;2.05;;
73428;SDS011;61643;49.564;17.412;2023-05-10T06:17:20;3.38;;;2.00;;
73428;SDS011;61643;49.564;17.412;2023-05-10T06:19:47;3.10;;;2.10;;
73428;SDS011;61643;49.564;17.412;2023-05-10T06:22:13;3.00;;;2.22;;
73428;SDS011;61643;49.564;17.412;2023-05-10T06:24:39;3.65;;;2.33;;
73428;SDS011;61643;49.564;17.412;2023-05-10T06:27:05;7.13;;;2.47;;
73428;SDS011;61643;49.564;17.412;2023-05-10T06:29:32;3.90;;;2.50;;
73428;SDS011;61643;49.564;17.412;2023-05-10T06:31:58;5.57;;;2.50;;
73428;SDS011;61643;49.564;17.412;2023-05-10T06:34:24;4.05;;;2.90;;
73428;SDS011;61643;49.564;17.412;2023-05-10T06:36:50;3.75;;;2.67;;
73428;SDS011;61643;49.564;17.412;2023-05-10T06:39:17;5.80;;;2.50;;
73428;SDS011;61643;49.564;17.412;2023-05-10T06:41:43;6.68;;;2.50;;
73428;SDS011;61643;49.564;17.412;2023-05-10T06:44:08;7.93;;;2.53;;
73428;SDS011;61643;49.564;17.412;2023-05-10T06:46:35;4.15;;;2.42;;
73428;SDS011;61643;49.564;17.412;2023-05-10T06:49:01;3.50;;;2.20;;
73428;SDS011;61643;49.564;17.412;2023-05-10T06:51:27;2.92;;;2.47;;
73428;SDS011;61643;49.564;17.412;2023-05-10T06:53:53;3.78;;;2.30;;
73428;SDS011;61643;49.564;17.412;2023-05-10T06:56:19;4.95;;;2.58;;
73428;SDS011;61643;49.564;17.412;2023-05-10T06:58:49;4.22;;;2.65;;
73428;SDS011;61643;49.564;17.412;2023-05-10T07:01:15;3.47;;;2.30;;
73428;SDS011;61643;49.564;17.412;2023-05-10T07:03:41;4.35;;;2.67;;
73428;SDS011;61643;49.564;17.412;2023-05-10T07:06:07;4.15;;;2.45;;
73428;SDS011;61643;49.564;17.412;2023-05-10T07:08:33;8.98;;;2.30;;
73428;SDS011;61643;49.564;17.412;2023-05-10T07:11:03;2.97;;;2.00;;
73428;SDS011;61643;49.564;17.412;2023-05-10T07:13:31;3.10;;;1.95;;
73428;SDS011;61643;49.564;17.412;2023-05-10T07:15:57;3.95;;;2.60;;
73428;SDS011;61643;49.564;17.412;2023-05-10T07:18:24;3.50;;;2.10;;
73428;SDS011;61643;49.564;17.412;2023-05-10T07:20:50;3.17;;;2.13;;
73428;SDS011;61643;49.564;17.412;2023-05-10T07:23:16;5.13;;;2.20;;
73428;SDS011;61643;49.564;17.412;2023-05-10T07:25:47;2.80;;;2.10;;
73428;SDS011;61643;49.564;17.412;2023-05-10T07:28:14;4.28;;;2.33;;
73428;SDS011;61643;49.564;17.412;2023-05-10T07:30:40;3.13;;;2.20;;
73428;SDS011;61643;49.564;17.412;2023-05-10T07:33:07;2.97;;;1.98;;
73428;SDS011;61643;49.564;17.412;2023-05-10T07:35:35;3.15;;;1.90;;
73428;SDS011;61643;49.564;17.412;2023-05-10T07:38:01;4.05;;;2.03;;
73428;SDS011;61643;49.564;17.412;2023-05-10T07:40:28;5.30;;;2.28;;
73428;SDS011;61643;49.564;17.412;2023-05-10T07:42:54;2.63;;;1.60;;
73428;SDS011;61643;49.564;17.412;2023-05-10T07:45:20;3.53;;;2.03;;
73428;SDS011;61643;49.564;17.412;2023-05-10T07:47:47;3.58;;;1.73;;
73428;SDS011;61643;49.564;17.412;2023-05-10T07:50:13;2.55;;;1.70;;
73428;SDS011;61643;49.564;17.412;2023-05-10T07:52:39;1.92;;;1.55;;
73428;SDS011;61643;49.564;17.412;2023-05-10T07:55:05;2.65;;;1.58;;
73428;SDS011;61643;49.564;17.412;2023-05-10T07:57:35;2.92;;;1.92;;
73428;SDS011;61643;49.564;17.412;2023-05-10T08:00:03;2.38;;;1.60;;
73428;SDS011;61643;49.564;17.412;2023-05-10T08:02:30;4.10;;;1.80;;
73428;SDS011;61643;49.564;17.412;2023-05-10T08:04:56;2.38;;;1.88;;
73428;SDS011;61643;49.564;17.412;2023-05-10T08:07:22;2.10;;;1.77;;
73428;SDS011;61643;49.564;17.412;2023-05-10T08:09:49;2.63;;;1.75;;
73428;SDS011;61643;49.564;17.412;2023-05-10T08:12:15;2.75;;;1.80;;
73428;SDS011;61643;49.564;17.412;2023-05-10T08:14:42;1.77;;;1.50;;
73428;SDS011;61643;49.564;17.412;2023-05-10T08:17:08;3.83;;;1.60;;
73428;SDS011;61643;49.564;17.412;2023-05-10T08:19:34;2.88;;;1.45;;
73428;SDS011;61643;49.564;17.412;2023-05-10T08:22:00;3.28;;;1.80;;
73428;SDS011;61643;49.564;17.412;2023-05-10T08:24:26;2.58;;;1.70;;
73428;SDS011;61643;49.564;17.412;2023-05-10T08:26:52;2.08;;;1.60;;
73428;SDS011;61643;49.564;17.412;2023-05-10T08:29:18;4.63;;;1.70;;
73428;SDS011;61643;49.564;17.412;2023-05-10T08:31:44;2.22;;;1.70;;
73428;SDS011;61643;49.564;17.412;2023-05-10T08:34:10;5.38;;;1.50;;
73428;SDS011;61643;49.564;17.412;2023-05-10T08:36:36;2.47;;;1.80;;
73428;SDS011;61643;49.564;17.412;2023-05-10T08:39:02;5.13;;;2.38;;
73428;SDS011;61643;49.564;17.412;2023-05-10T08:41:28;2.15;;;1.70;;
73428;SDS011;61643;49.564;17.412;2023-05-10T08:43:55;4.47;;;2.17;;
73428;SDS011;61643;49.564;17.412;2023-05-10T08:46:21;4.35;;;1.77;;
73428;SDS011;61643;49.564;17.412;2023-05-10T08:48:49;2.85;;;1.67;;
73428;SDS011;61643;49.564;17.412;2023-05-10T08:51:18;1.63;;;1.42;;
73428;SDS011;61643;49.564;17.412;2023-05-10T08:53:45;2.55;;;1.33;;
73428;SDS011;61643;49.564;17.412;2023-05-10T08:56:11;3.22;;;1.30;;
73428;SDS011;61643;49.564;17.412;2023-05-10T08:58:37;2.00;;;1.55;;
73428;SDS011;61643;49.564;17.412;2023-05-10T09:01:04;2.55;;;1.58;;
73428;SDS011;61643;49.564;17.412;2023-05-10T09:03:31;2.35;;;1.50;;
73428;SDS011;61643;49.564;17.412;2023-05-10T09:05:58;2.28;;;1.45;;
73428;SDS011;61643;49.564;17.412;2023-05-10T09:08:24;1.60;;;1.40;;
73428;SDS011;61643;49.564;17.412;2023-05-10T09:10:56;1.73;;;1.58;;
73428;SDS011;61643;49.564;17.412;2023-05-10T09:13:23;3.40;;;1.60;;
73428;SDS011;61643;49.564;17.412;2023-05-10T09:15:50;2.95;;;1.58;;
73428;SDS011;61643;49.564;17.412;2023-05-10T09:18:16;1.80;;;1.48;;
73428;SDS011;61643;49.564;17.412;2023-05-10T09:20:42;1.90;;;1.55;;
73428;SDS011;61643;49.564;17.412;2023-05-10T09:23:08;1.98;;;1.77;;
73428;SDS011;61643;49.564;17.412;2023-05-10T09:25:34;3.05;;;1.58;;
73428;SDS011;61643;49.564;17.412;2023-05-10T09:28:01;2.67;;;1.50;;
73428;SDS011;61643;49.564;17.412;2023-05-10T09:30:30;1.73;;;1.58;;
73428;SDS011;61643;49.564;17.412;2023-05-10T09:32:57;1.80;;;1.35;;
73428;SDS011;61643;49.564;17.412;2023-05-10T09:35:25;1.50;;;1.40;;
73428;SDS011;61643;49.564;17.412;2023-05-10T09:37:56;2.85;;;1.42;;
73428;SDS011;61643;49.564;17.412;2023-05-10T09:43:00;2.58;;;1.58;;
73428;SDS011;61643;49.564;17.412;2023-05-10T09:45:28;1.38;;;1.23;;
73428;SDS011;61643;49.564;17.412;2023-05-10T09:47:55;4.28;;;1.42;;
73428;SDS011;61643;49.564;17.412;2023-05-10T09:50:22;3.97;;;1.67;;
73428;SDS011;61643;49.564;17.412;2023-05-10T09:55:23;1.48;;;1.38;;
73428;SDS011;61643;49.564;17.412;2023-05-10T09:57:58;2.45;;;1.58;;
73428;SDS011;61643;49.564;17.412;2023-05-10T10:00:25;2.22;;;1.17;;
73428;SDS011;61643;49.564;17.412;2023-05-10T10:02:55;2.33;;;1.20;;
73428;SDS011;61643;49.564;17.412;2023-05-10T10:05:29;1.52;;;1.10;;
73428;SDS011;61643;49.564;17.412;2023-05-10T10:07:56;1.55;;;1.10;;
73428;SDS011;61643;49.564;17.412;2023-05-10T10:10:24;3.10;;;1.10;;
73428;SDS011;61643;49.564;17.412;2023-05-10T10:12:51;2.30;;;1.40;;
73428;SDS011;61643;49.564;17.412;2023-05-10T10:15:17;1.35;;;1.25;;
73428;SDS011;61643;49.564;17.412;2023-05-10T10:17:44;2.38;;;1.30;;
73428;SDS011;61643;49.564;17.412;2023-05-10T10:20:11;3.08;;;1.25;;
73428;SDS011;61643;49.564;17.412;2023-05-10T10:22:38;1.25;;;1.08;;
73428;SDS011;61643;49.564;17.412;2023-05-10T10:25:04;1.40;;;1.20;;
73428;SDS011;61643;49.564;17.412;2023-05-10T10:27:34;1.27;;;1.00;;
73428;SDS011;61643;49.564;17.412;2023-05-10T10:30:48;1.10;;;1.00;;
73428;SDS011;61643;49.564;17.412;2023-05-10T10:36:12;2.03;;;1.33;;
73428;SDS011;61643;49.564;17.412;2023-05-10T10:41:10;1.27;;;1.17;;
73428;SDS011;61643;49.564;17.412;2023-05-10T10:52:26;1.13;;;1.00;;
73428;SDS011;61643;49.564;17.412;2023-05-10T10:54:59;1.63;;;1.10;;
73428;SDS011;61643;49.564;17.412;2023-05-10T10:57:27;2.47;;;1.10;;
73428;SDS011;61643;49.564;17.412;2023-05-10T11:02:58;1.48;;;1.25;;
73428;SDS011;61643;49.564;17.412;2023-05-10T11:05:41;4.07;;;1.33;;
73428;SDS011;61643;49.564;17.412;2023-05-10T11:13:40;4.20;;;1.23;;
73428;SDS011;61643;49.564;17.412;2023-05-10T11:18:37;1.95;;;1.30;;
73428;SDS011;61643;49.564;17.412;2023-05-10T11:21:03;1.23;;;1.10;;
73428;SDS011;61643;49.564;17.412;2023-05-10T11:23:33;2.20;;;1.13;;
73428;SDS011;61643;49.564;17.412;2023-05-10T11:26:13;1.20;;;1.10;;
73428;SDS011;61643;49.564;17.412;2023-05-10T11:28:42;1.42;;;1.30;;
73428;SDS011;61643;49.564;17.412;2023-05-10T11:31:09;1.67;;;1.25;;
73428;SDS011;61643;49.564;17.412;2023-05-10T11:33:49;1.40;;;1.00;;
73428;SDS011;61643;49.564;17.412;2023-05-10T11:36:17;1.50;;;1.20;;
73428;SDS011;61643;49.564;17.412;2023-05-10T11:38:45;2.03;;;0.98;;
73428;SDS011;61643;49.564;17.412;2023-05-10T11:41:12;1.85;;;1.00;;
73428;SDS011;61643;49.564;17.412;2023-05-10T11:43:38;1.52;;;1.33;;
73428;SDS011;61643;49.564;17.412;2023-05-10T11:46:06;1.67;;;1.30;;
73428;SDS011;61643;49.564;17.412;2023-05-10T11:48:33;2.22;;;1.20;;
73428;SDS011;61643;49.564;17.412;2023-05-10T11:51:00;3.28;;;1.27;;
73428;SDS011;61643;49.564;17.412;2023-05-10T11:53:28;2.13;;;1.38;;
73428;SDS011;61643;49.564;17.412;2023-05-10T11:56:09;1.38;;;1.27;;
73428;SDS011;61643;49.564;17.412;2023-05-10T11:58:36;1.48;;;1.38;;
73428;SDS011;61643;49.564;17.412;2023-05-10T12:01:04;1.90;;;1.40;;
73428;SDS011;61643;49.564;17.412;2023-05-10T12:03:31;1.63;;;1.35;;
73428;SDS011;61643;49.564;17.412;2023-05-10T12:05:57;1.85;;;1.25;;
73428;SDS011;61643;49.564;17.412;2023-05-10T12:08:25;3.20;;;1.17;;
73428;SDS011;61643;49.564;17.412;2023-05-10T12:10:52;5.25;;;1.58;;
73428;SDS011;61643;49.564;17.412;2023-05-10T12:15:46;4.20;;;1.70;;
73428;SDS011;61643;49.564;17.412;2023-05-10T12:18:13;1.60;;;1.30;;
73428;SDS011;61643;49.564;17.412;2023-05-10T12:20:40;4.28;;;1.40;;
73428;SDS011;61643;49.564;17.412;2023-05-10T12:23:08;3.40;;;1.27;;
73428;SDS011;61643;49.564;17.412;2023-05-10T12:25:36;2.35;;;1.30;;
73428;SDS011;61643;49.564;17.412;2023-05-10T12:28:04;2.38;;;1.58;;
73428;SDS011;61643;49.564;17.412;2023-05-10T12:30:32;2.25;;;1.50;;
73428;SDS011;61643;49.564;17.412;2023-05-10T12:33:00;4.10;;;1.70;;
73428;SDS011;61643;49.564;17.412;2023-05-10T12:35:29;2.42;;;1.50;;
73428;SDS011;61643;49.564;17.412;2023-05-10T12:37:56;4.75;;;1.30;;
73428;SDS011;61643;49.564;17.412;2023-05-10T12:40:22;2.90;;;1.40;;
73428;SDS011;61643;49.564;17.412;2023-05-10T12:42:48;2.03;;;1.38;;
73428;SDS011;61643;49.564;17.412;2023-05-10T12:45:14;2.17;;;1.73;;
73428;SDS011;61643;49.564;17.412;2023-05-10T12:47:42;4.03;;;1.65;;
73428;SDS011;61643;49.564;17.412;2023-05-10T12:50:09;2.25;;;1.30;;
73428;SDS011;61643;49.564;17.412;2023-05-10T12:52:35;2.05;;;1.55;;
73428;SDS011;61643;49.564;17.412;2023-05-10T12:55:01;2.00;;;1.60;;
73428;SDS011;61643;49.564;17.412;2023-05-10T12:57:28;2.40;;;1.60;;
73428;SDS011;61643;49.564;17.412;2023-05-10T12:59:54;2.13;;;1.30;;
73428;SDS011;61643;49.564;17.412;2023-05-10T13:02:21;2.30;;;1.40;;
73428;SDS011;61643;49.564;17.412;2023-05-10T13:04:48;2.08;;;1.40;;
73428;SDS011;61643;49.564;17.412;2023-05-10T13:07:15;1.55;;;1.40;;
73428;SDS011;61643;49.564;17.412;2023-05-10T13:09:41;2.13;;;1.50;;
73428;SDS011;61643;49.564;17.412;2023-05-10T13:12:07;2.42;;;1.40;;
73428;SDS011;61643;49.564;17.412;2023-05-10T13:14:33;1.70;;;1.38;;
73428;SDS011;61643;49.564;17.412;2023-05-10T13:16:59;2.38;;;1.33;;
73428;SDS011;61643;49.564;17.412;2023-05-10T13:19:25;1.55;;;1.27;;
73428;SDS011;61643;49.564;17.412;2023-05-10T13:21:51;1.95;;;1.20;;
73428;SDS011;61643;49.564;17.412;2023-05-10T13:24:17;1.30;;;1.20;;
73428;SDS011;61643;49.564;17.412;2023-05-10T13:26:43;3.22;;;1.35;;
73428;SDS011;61643;49.564;17.412;2023-05-10T13:29:09;3.15;;;1.60;;
73428;SDS011;61643;49.564;17.412;2023-05-10T13:31:35;2.00;;;1.42;;
73428;SDS011;61643;49.564;17.412;2023-05-10T13:34:01;1.40;;;1.30;;
73428;SDS011;61643;49.564;17.412;2023-05-10T13:36:28;3.13;;;1.70;;
73428;SDS011;61643;49.564;17.412;2023-05-10T13:38:54;3.08;;;1.73;;
73428;SDS011;61643;49.564;17.412;2023-05-10T13:41:20;3.60;;;1.58;;
73428;SDS011;61643;49.564;17.412;2023-05-10T13:43:46;3.20;;;1.60;;
73428;SDS011;61643;49.564;17.412;2023-05-10T13:48:39;3.05;;;1.20;;
73428;SDS011;61643;49.564;17.412;2023-05-10T13:51:05;3.33;;;1.90;;
73428;SDS011;61643;49.564;17.412;2023-05-10T13:53:31;3.13;;;1.60;;
73428;SDS011;61643;49.564;17.412;2023-05-10T13:55:57;3.28;;;1.50;;
73428;SDS011;61643;49.564;17.412;2023-05-10T13:58:23;2.13;;;1.40;;
73428;SDS011;61643;49.564;17.412;2023-05-10T14:00:49;3.05;;;1.70;;
73428;SDS011;61643;49.564;17.412;2023-05-10T14:03:15;2.10;;;1.60;;
73428;SDS011;61643;49.564;17.412;2023-05-10T14:05:42;3.58;;;1.48;;
73428;SDS011;61643;49.564;17.412;2023-05-10T14:08:08;1.58;;;1.30;;
73428;SDS011;61643;49.564;17.412;2023-05-10T14:10:35;2.42;;;1.48;;
73428;SDS011;61643;49.564;17.412;2023-05-10T14:13:02;2.13;;;1.58;;
73428;SDS011;61643;49.564;17.412;2023-05-10T14:15:28;3.28;;;1.50;;
73428;SDS011;61643;49.564;17.412;2023-05-10T14:17:54;2.17;;;1.58;;
73428;SDS011;61643;49.564;17.412;2023-05-10T14:20:20;4.57;;;1.85;;
73428;SDS011;61643;49.564;17.412;2023-05-10T14:22:46;4.05;;;1.40;;
73428;SDS011;61643;49.564;17.412;2023-05-10T14:25:13;0.93;;;0.93;;
73428;SDS011;61643;49.564;17.412;2023-05-10T14:27:39;3.55;;;1.45;;
73428;SDS011;61643;49.564;17.412;2023-05-10T14:30:06;4.13;;;1.70;;
73428;SDS011;61643;49.564;17.412;2023-05-10T14:32:32;3.75;;;1.63;;
73428;SDS011;61643;49.564;17.412;2023-05-10T14:34:58;4.70;;;1.67;;
73428;SDS011;61643;49.564;17.412;2023-05-10T14:37:25;2.22;;;1.50;;
73428;SDS011;61643;49.564;17.412;2023-05-10T14:39:51;2.13;;;1.42;;
73428;SDS011;61643;49.564;17.412;2023-05-10T14:42:17;1.85;;;1.40;;
73428;SDS011;61643;49.564;17.412;2023-05-10T14:44:43;2.92;;;1.40;;
73428;SDS011;61643;49.564;17.412;2023-05-10T14:47:09;2.92;;;1.33;;
73428;SDS011;61643;49.564;17.412;2023-05-10T14:49:35;2.50;;;1.48;;
73428;SDS011;61643;49.564;17.412;2023-05-10T14:52:01;1.60;;;1.30;;
73428;SDS011;61643;49.564;17.412;2023-05-10T14:54:27;2.22;;;1.20;;
73428;SDS011;61643;49.564;17.412;2023-05-10T14:56:53;2.15;;;1.33;;
73428;SDS011;61643;49.564;17.412;2023-05-10T14:59:20;1.77;;;1.60;;
73428;SDS011;61643;49.564;17.412;2023-05-10T15:01:46;3.35;;;1.50;;
73428;SDS011;61643;49.564;17.412;2023-05-10T15:04:12;2.85;;;1.52;;
73428;SDS011;61643;49.564;17.412;2023-05-10T15:06:38;1.83;;;1.55;;
73428;SDS011;61643;49.564;17.412;2023-05-10T15:09:04;1.75;;;1.60;;
73428;SDS011;61643;49.564;17.412;2023-05-10T15:11:31;2.28;;;1.48;;
73428;SDS011;61643;49.564;17.412;2023-05-10T15:13:56;2.65;;;1.65;;
73428;SDS011;61643;49.564;17.412;2023-05-10T15:16:22;2.35;;;1.27;;
73428;SDS011;61643;49.564;17.412;2023-05-10T15:18:48;3.30;;;1.67;;
73428;SDS011;61643;49.564;17.412;2023-05-10T15:21:14;1.60;;;1.50;;
73428;SDS011;61643;49.564;17.412;2023-05-10T15:23:40;2.13;;;1.40;;
73428;SDS011;61643;49.564;17.412;2023-05-10T15:26:06;2.15;;;1.40;;
73428;SDS011;61643;49.564;17.412;2023-05-10T15:28:33;1.77;;;1.30;;
73428;SDS011;61643;49.564;17.412;2023-05-10T15:30:59;1.33;;;1.08;;
73428;SDS011;61643;49.564;17.412;2023-05-10T15:33:25;1.70;;;1.30;;